Astoria, NY

8:43 AM EDT on July 30, 2016 (GMT -0400)
Greenpoint | | Change Station

Elev 16 ft 40.73 °N, 73.96 °W | Updated 4 minutes ago

Haze
Haze
83.7 °F
Feels Like 91 °F
N
0.0
Wind Variable Wind from West

Today
High -- | Low -- °F
--% Chance of Precip.
Yesterday
High -- | Low -- °F
Precip. -- in
Pressure 30.00 in
Visibility 6.0 miles
Clouds Clear
Heat Index 91 °F
Dew Point 74 °F
Humidity 74%
Rainfall 0.00 in
Snow Depth Not available.
5:50 AM 8:12 PM
Waning Crescent, 13% visible
METAR KNYC 301151Z AUTO 07003KT 6SM HZ CLR 26/21 A3002 RMK AO2 SLP157 70015 T02560211 10256 20233 53018 $
Pressure 30.00 in
Visibility 6.0 miles
Clouds Clear
Heat Index 91 °F
Dew Point 74 °F
Humidity 74%
Rainfall 0.00 in
Snow Depth Not available.
5:50 AM 8:12 PM
Waning Crescent, 13% visible
METAR KNYC 301151Z AUTO 07003KT 6SM HZ CLR 26/21 A3002 RMK AO2 SLP157 70015 T02560211 10256 20233 53018 $

10-Day Weather Forecast

Almanac

Astronomy

Jul. 30, 2016 Rise Set
Actual Time
Civil Twilight
Nautical Twilight
Astronomical Twilight
Moon
Length of Visible Light
Length of Day
Tomorrow will be .
, % of the Moon is Illuminated

Today's Extremes

State Highs State Lows

Community

WunderPhotos

Upload Photos

1,928,545 photos uploaded!

WunderBlog® & News

Nearby

Air Quality

  Air Quality AQ Index Pollutant
Not available.

Snow Depth

Station Depth Elevation

Earthquake Activity

City Distance Mag. Time & Date
Minimum magnitude displayed is 2.5.

Coastal Water Temperatures

Place Temperature

Stations

Nearby Weather Stations

Station Location Temp. Windchill Dew Point Humidity Wind Precip. Elev Updated Type
                   

Watches & Warnings

There are currently no watches in effect.